Latest Weather Observations for Ferny Creek

IDV60901

Issued at 10:11 pm EDT Thursday 23 November 2017 (issued every 10 minutes, with the page automatically refreshed every 10 minutes)

About weather observations | Map of Melbourne area stations | Latest observations for Melbourne area | Other Formats
Station Details ID: 086266 Name: FERNY CREEK Lat: -37.87 Lon: 145.35 Height: 512.9 m
Data from the previous 72 hours. | See also: Recent months at Ferny Creek
Date/Time
EDT
Temp
°C
App
Temp
°C
Dew
Point
°C
Rel
Hum
%
Delta-T
°C
Wind Press
QNH
hPa
Press
MSL
hPa
Rain since
9am
mm
Dir  Spd
km/h
Gust
km/h
Spd
kts
Gust
kts
23/10:00pm 21.9 20.7 6.6 37 8.0 NE 2 4 1 2 1013.0 1012.2 0.0
23/09:30pm 22.1 21.3 6.3 36 8.2 CALM 0 2 0 1 1013.0 1012.2 0.0
23/09:00pm 21.9 20.1 7.3 39 7.7 NE 6 7 3 4 1012.7 1011.9 0.0
23/08:30pm 22.5 20.9 8.6 41 7.6 NW 7 13 4 7 1012.7 1011.9 0.0
23/08:00pm 22.9 22.1 6.6 35 8.6 CALM 0 4 0 2 1011.8 1011.1 0.0
23/07:30pm 23.1 22.3 8.0 38 8.2 ENE 2 4 1 2 1011.6 1010.9 0.0
23/07:00pm 24.0 22.6 7.2 34 9.0 ENE 4 6 2 3 1011.3 1010.5 0.0
23/06:30pm 24.4 23.1 7.5 34 9.1 ENE 4 9 2 5 1011.1 1010.3 0.0
23/06:00pm 24.3 22.9 7.4 34 9.1 NE 4 7 2 4 1011.0 1010.2 0.0
23/05:30pm 25.5 25.2 8.5 34 9.4 CALM 0 2 0 1 1011.6 1010.9 0.0
23/05:00pm 25.3 23.9 8.7 35 9.2 WSW 6 13 3 7 1012.2 1011.5 0.0
23/04:30pm 23.8 23.5 10.1 42 7.7 SW 2 6 1 3 1012.4 1011.7 0.0
23/04:00pm 22.3 20.5 7.3 38 8.0 S 6 19 3 10 1012.2 1011.5 0.0
23/03:30pm 22.8 20.5 7.4 37 8.2 WSW 9 28 5 15 1012.3 1011.6 0.0
23/03:00pm 26.1 24.1 6.2 28 10.6 W 6 15 3 8 1012.3 1011.6 0.0
23/02:30pm 28.6 25.9 5.5 23 12.3 NNE 9 20 5 11 1012.0 1011.3 0.0
23/02:00pm 28.6 26.1 6.7 25 11.9 NNW 9 19 5 10 1012.4 1011.7 0.0
23/01:30pm 27.9 25.7 6.1 25 11.7 N 7 20 4 11 1012.8 1012.0 0.0
23/01:00pm 27.6 25.9 8.5 30 10.7 N 7 26 4 14 1013.1 1012.3 0.0
23/12:30pm 26.9 25.7 10.2 35 9.5 N 7 17 4 9 1013.3 1012.6 0.0
23/12:00pm 26.1 24.7 9.5 35 9.3 N 7 17 4 9 1013.6 1012.9 0.0
23/11:30am 25.4 23.3 8.4 34 9.4 N 9 17 5 9 1013.7 1013.0 0.0
23/11:00am 24.6 22.8 8.1 35 9.0 N 7 19 4 10 1013.8 1013.1 0.0
23/10:30am 24.7 23.1 8.6 36 8.9 N 7 19 4 10 1013.7 1013.0 0.0
23/10:00am 23.2 21.2 6.9 35 8.6 NNW 7 15 4 8 1013.7 1013.0 0.0
23/09:30am 23.3 21.2 6.6 34 8.8 N 7 19 4 10 1013.7 1013.0 0.0
23/09:00am 22.5 20.6 6.7 36 8.3 NNW 6 17 3 9 1013.7 1013.0 0.0
23/08:30am 21.9 19.8 5.8 35 8.3 N 6 13 3 7 1013.7 1013.0 0.0
23/08:00am 21.7 19.6 5.6 35 8.3 NNW 6 11 3 6 1013.6 1012.9 0.0
23/07:30am 21.1 18.9 5.5 36 7.9 NNW 6 11 3 6 1013.5 1012.8 0.0
23/07:00am 20.9 18.7 5.3 36 7.9 NNW 6 15 3 8 1013.4 1012.7 0.0
23/06:30am 20.5 18.4 5.7 38 7.5 NNW 6 11 3 6 1013.1 1012.3 0.0
23/06:00am 18.6 16.7 6.8 46 6.1 NW 6 6 3 3 1013.0 1012.2 0.0
23/05:30am 18.6 17.1 6.8 46 6.1 NW 4 7 2 4 1012.7 1011.9 0.0
23/05:00am 17.8 15.6 6.3 47 5.8 NW 7 9 4 5 1012.7 1011.9 0.0
23/04:30am 18.2 15.6 6.1 45 6.1 NW 9 13 5 7 1012.5 1011.8 0.0
23/04:00am 18.3 15.7 6.2 45 6.1 WNW 9 11 5 6 1012.7 1011.9 0.0
23/03:30am 18.1 15.7 6.9 48 5.7 NW 9 11 5 6 1012.9 1012.1 0.0
23/03:00am 17.8 15.7 8.4 54 5.0 WNW 9 13 5 7 1013.0 1012.2 0.0
23/02:30am 18.2 15.8 8.5 53 5.1 WNW 11 13 6 7 1013.3 1012.6 0.0
23/02:00am 18.6 17.2 8.8 53 5.2 WNW 6 9 3 5 1013.3 1012.6 0.0
23/01:30am 18.4 16.9 8.4 52 5.3 WNW 6 6 3 3 1013.6 1012.9 0.0
23/01:00am 19.3 18.0 7.7 47 6.1 WNW 4 6 2 3 1013.8 1013.1 0.0
23/12:30am 18.6 18.1 9.4 55 5.0 NNE 2 6 1 3 1013.9 1013.2 0.0
23/12:00am 19.5 18.6 9.1 51 5.6 ENE 4 6 2 3 1014.1 1013.4 0.0
 
Date/Time
EDT
Temp
°C
App
Temp
°C
Dew
Point
°C
Rel
Hum
%
Delta-T
°C
Wind Press
QNH
hPa
Press
MSL
hPa
Rain since
9am
mm
Dir  Spd
km/h
Gust
km/h
Spd
kts
Gust
kts
22/11:30pm 19.1 18.4 8.4 50 5.7 E 2 4 1 2 1014.3 1013.6 0.0
22/11:00pm 18.9 18.2 8.6 51 5.5 E 2 6 1 3 1014.5 1013.8 0.0
22/10:30pm 19.1 17.5 7.8 48 5.9 E 6 9 3 5 1014.9 1014.2 0.0
22/10:00pm 19.6 17.7 7.4 45 6.4 E 7 13 4 7 1014.9 1014.2 0.0
22/09:30pm 19.7 17.0 5.4 39 7.2 E 9 17 5 9 1014.9 1014.2 0.0
22/09:00pm 20.0 17.0 1.9 30 8.5 ESE 7 13 4 7 1014.9 1014.2 0.0
22/08:30pm 20.2 18.5 8.5 47 6.3 ESE 7 13 4 7 1015.1 1014.4 0.0
22/08:00pm 21.1 19.3 8.0 43 7.0 ESE 7 17 4 9 1014.9 1014.2 0.0
22/07:30pm 22.2 20.9 10.0 46 6.8 ESE 7 13 4 7 1015.0 1014.3 0.0
22/07:00pm 22.9 22.0 10.7 46 6.9 ESE 6 11 3 6 1014.9 1014.2 0.0
22/06:30pm 23.9 22.9 10.9 44 7.4 E 7 15 4 8 1014.8 1014.0 0.0
22/06:00pm 24.7 22.9 9.4 38 8.5 ESE 9 17 5 9 1014.9 1014.2 0.0
22/05:30pm 26.0 23.6 7.1 30 10.2 ESE 9 15 5 8 1014.9 1014.2 0.0
22/05:00pm 27.1 24.2 1.5 19 12.6 SE 6 15 3 8 1015.0 1014.3 0.0
22/04:30pm 27.7 24.7 0.5 17 13.2 ESE 6 13 3 7 1015.1 1014.4 0.0
22/04:00pm 27.9 24.7 0.6 17 13.3 SE 7 13 4 7 1015.4 1014.7 0.0
22/03:30pm 28.0 25.1 1.5 18 13.1 SSE 6 9 3 5 1015.7 1015.0 0.0
22/03:00pm 28.0 25.1 1.5 18 13.1 SSW 6 13 3 7 1016.1 1015.4 0.0
22/02:30pm 27.5 25.5 4.5 23 12.0 NNW 4 11 2 6 1016.6 1016.0 0.0
22/02:00pm 27.1 24.4 3.6 22 12.0 E 7 13 4 7 1017.1 1016.4 0.0
22/01:30pm 27.1 24.4 2.9 21 12.2 SSW 6 15 3 8 1017.4 1016.7 0.0
22/01:00pm 26.1 23.1 2.1 21 11.8 ENE 7 15 4 8 1017.8 1017.1 0.0
22/12:30pm 26.3 24.2 5.8 27 10.8 ENE 6 9 3 5 1018.1 1017.4 0.0
22/12:00pm 26.2 25.1 10.0 36 9.2 N 6 11 3 6 1018.3 1017.7 0.0
22/11:30am 25.2 23.6 7.8 33 9.5 N 6 11 3 6 1018.4 1017.8 0.0
22/11:00am 24.9 23.6 9.2 37 8.7 N 6 13 3 7 1018.5 1017.9 0.0
22/10:30am 24.7 23.3 9.4 38 8.5 N 7 17 4 9 1018.7 1018.1 0.0
22/10:00am 24.1 22.6 8.5 37 8.5 N 6 13 3 7 1019.0 1018.3 0.0
22/09:30am 23.3 21.6 7.4 36 8.5 N 6 9 3 5 1019.0 1018.3 0.0
22/09:00am 22.6 20.8 7.2 37 8.2 N 6 9 3 5 1019.1 1018.4 0.0
22/08:30am 21.9 20.0 6.6 37 8.0 N 6 13 3 7 1019.1 1018.4 0.0
22/08:00am 21.4 19.3 6.5 38 7.7 NNW 7 17 4 9 1019.0 1018.3 0.0
22/07:30am 21.5 19.0 5.0 34 8.3 NNW 7 13 4 7 1018.7 1018.1 0.0
22/07:00am 22.6 19.7 -0.8 21 10.7 E 4 6 2 3 1018.5 1017.9 0.0
22/06:30am 22.2 19.0 -3.2 18 11.0 E 4 7 2 4 1018.4 1017.8 0.0
22/06:00am 21.5 18.3 -3.1 19 10.6 E 4 6 2 3 1018.3 1017.7 0.0
22/05:30am 21.3 18.2 -2.5 20 10.4 E 4 6 2 3 1018.2 1017.6 0.0
22/05:00am 20.9 17.6 -1.6 22 10.0 E 6 7 3 4 1018.1 1017.4 0.0
22/04:30am 20.5 17.6 1.4 28 9.0 E 6 9 3 5 1018.1 1017.4 0.0
22/04:00am 20.8 17.9 1.6 28 9.0 ESE 6 9 3 5 1018.1 1017.4 0.0
22/03:30am 20.6 17.9 2.9 31 8.5 E 6 7 3 4 1018.2 1017.6 0.0
22/03:00am 20.9 18.4 4.0 33 8.3 ENE 6 13 3 7 1018.4 1017.8 0.0
22/02:30am 20.7 18.5 5.5 37 7.7 E 6 9 3 5 1018.4 1017.8 0.0
22/02:00am 20.6 18.5 6.5 40 7.3 E 7 13 4 7 1018.7 1018.1 0.0
22/01:30am 20.8 19.1 7.4 42 7.1 ENE 6 11 3 6 1019.0 1018.3 0.0
22/01:00am 20.9 19.8 8.5 45 6.7 E 4 9 2 5 1019.1 1018.4 0.0
22/12:30am 21.2 19.7 8.5 44 6.8 E 6 9 3 5 1019.3 1018.6 0.0
22/12:00am 21.1 19.7 9.0 46 6.6 ENE 6 13 3 7 1019.5 1018.8 0.0
 
Date/Time
EDT
Temp
°C
App
Temp
°C
Dew
Point
°C
Rel
Hum
%
Delta-T
°C
Wind Press
QNH
hPa
Press
MSL
hPa
Rain since
9am
mm
Dir  Spd
km/h
Gust
km/h
Spd
kts
Gust
kts
21/11:30pm 20.9 19.3 8.9 46 6.5 E 7 13 4 7 1019.8 1019.1 0.0
21/11:00pm 21.3 19.8 9.2 46 6.6 E 7 13 4 7 1019.9 1019.3 0.0
21/10:30pm 21.0 19.9 10.5 51 5.9 E 7 11 4 6 1020.1 1019.5 0.0
21/10:00pm 21.4 20.4 11.1 52 5.8 E 7 13 4 7 1020.2 1019.6 0.0
21/09:30pm 21.2 20.0 11.5 54 5.5 E 9 17 5 9 1020.1 1019.5 0.0
21/09:00pm 21.9 20.8 11.9 53 5.7 E 9 19 5 10 1019.8 1019.1 0.0
21/08:30pm 22.3 20.7 11.7 51 6.1 E 11 17 6 9 1019.6 1018.9 0.0
21/08:00pm 23.1 21.3 12.1 50 6.4 E 13 20 7 11 1019.5 1018.8 0.0
21/07:30pm 23.8 22.1 12.4 48 6.7 E 13 24 7 13 1019.4 1018.7 0.0
21/07:00pm 24.7 22.6 9.8 39 8.4 E 11 20 6 11 1019.4 1018.7 0.0
21/06:30pm 25.0 23.3 9.7 38 8.6 E 9 15 5 8 1019.6 1018.9 0.0
21/06:00pm 25.2 23.0 9.5 37 8.8 ESE 11 24 6 13 1019.6 1018.9 0.0
21/05:30pm 27.1 25.7 9.0 32 10.2 ENE 6 9 3 5 1019.8 1019.1 0.0
21/05:00pm 27.1 25.7 9.0 32 10.1 SE 6 9 3 5 1019.8 1019.1 0.0
21/04:30pm 27.3 26.1 8.2 30 10.6 ENE 4 9 2 5 1019.8 1019.1 0.0
21/04:00pm 27.2 26.3 7.6 29 10.7 NNE 2 7 1 4 1020.1 1019.5 0.0
21/03:30pm 27.3 26.4 9.2 32 10.2 NE 4 7 2 4 1020.5 1019.9 0.0
21/03:00pm 26.9 25.3 10.2 35 9.5 ENE 9 15 5 8 1020.8 1020.2 0.0
21/02:30pm 27.4 26.9 10.6 35 9.7 N 4 9 2 5 1021.3 1020.6 0.0
21/02:00pm 27.2 26.1 10.0 34 9.8 W 6 11 3 6 1021.6 1021.0 0.0
21/01:30pm 26.3 25.4 9.2 34 9.6 N 4 9 2 5 1022.0 1021.4 0.0
21/01:00pm 26.5 26.1 11.0 38 8.9 S 4 9 2 5 1022.3 1021.7 0.0
21/12:30pm 25.4 23.7 7.5 32 9.7 NNW 6 13 3 7 1022.5 1021.9 0.0
21/12:00pm 24.7 24.2 12.0 45 7.4 NNE 6 9 3 5 1022.7 1022.1 0.0
21/11:30am 23.9 23.4 11.9 47 7.0 NNW 6 15 3 8 1022.9 1022.3 0.0
21/11:00am 23.5 23.4 12.2 49 6.6 NNW 4 7 2 4 1023.1 1022.4 0.0
21/10:30am 22.8 21.7 10.6 46 6.9 NW 7 15 4 8 1023.2 1022.5 0.0
21/10:00am 23.5 23.0 10.9 45 7.1 NNW 4 11 2 6 1023.4 1022.8 0.0
21/09:30am 22.6 21.6 10.4 46 6.9 N 6 17 3 9 1023.4 1022.8 0.0
21/09:00am 21.7 20.3 8.9 44 6.9 NNW 6 11 3 6 1023.5 1022.9 0.4
21/08:30am 21.7 20.1 8.2 42 7.3 NNW 6 11 3 6 1023.3 1022.7 -
21/08:00am 21.4 19.7 7.6 41 7.3 NNW 6 11 3 6 1023.2 1022.5 -
21/07:30am 21.2 19.9 7.8 42 7.1 NNW 4 9 2 5 1022.8 1022.2 -
21/07:00am 20.4 19.2 8.1 45 6.5 NNW 4 9 2 5 1022.6 1022.0 -
21/06:30am 20.1 18.8 7.5 44 6.6 NW 4 9 2 5 1022.5 1021.9 -
21/06:00am 19.4 18.3 6.8 44 6.5 N 2 7 1 4 1022.1 1021.5 -
21/05:30am 19.1 18.2 7.8 48 5.9 N 2 6 1 3 1021.8 1021.2 -
21/05:00am 19.2 18.8 9.7 54 5.2 N 2 9 1 5 1021.7 1021.1 -
21/04:30am 19.8 18.9 9.4 51 5.7 NNW 4 9 2 5 1021.5 1020.8 -
21/04:00am 19.9 19.6 10.0 53 5.4 NNW 2 6 1 3 1021.5 1020.8 -
21/03:30am 19.9 19.7 10.3 54 5.3 NNE 2 6 1 3 1021.5 1020.8 -
21/03:00am 20.9 20.6 10.1 50 6.0 NW 2 6 1 3 1021.5 1020.8 0.0
21/02:30am 21.5 20.3 9.4 46 6.6 NNE 6 13 3 7 1021.4 1020.7 -
21/02:00am 21.3 20.6 9.9 48 6.3 NNE 4 11 2 6 1021.5 1020.8 -
21/01:30am 20.7 20.0 10.2 51 5.8 NE 4 9 2 5 1021.7 1021.1 -
21/01:00am 20.2 19.5 8.5 47 6.2 ENE 2 4 1 2 1021.9 1021.3 -
21/12:30am 20.2 19.0 8.2 46 6.4 ENE 4 7 2 4 1022.1 1021.5 -
21/12:00am 20.0 18.3 8.4 47 6.2 ENE 7 17 4 9 1022.3 1021.7 -
 
Date/Time
EDT
Temp
°C
App
Temp
°C
Dew
Point
°C
Rel
Hum
%
Delta-T
°C
Wind Press
QNH
hPa
Press
MSL
hPa
Rain since
9am
mm
Dir  Spd
km/h
Gust
km/h
Spd
kts
Gust
kts
20/11:30pm 20.0 18.0 8.7 48 6.1 ENE 9 17 5 9 1022.4 1021.8 -
20/11:00pm 19.7 18.0 8.4 48 6.0 E 7 17 4 9 1022.5 1021.9 -
20/10:30pm 20.0 17.6 8.7 48 6.1 E 11 17 6 9 1022.6 1022.0 -

Latest Capital City Observations: Canberra | Sydney | Melbourne | Brisbane | Adelaide | Perth | Hobart | Darwin

Other Formats:

Comma delimited format used in spreadsheet applications
http://www.bom.gov.au/fwo/IDV60901/IDV60901.94872.axf

JavaScript Object Notation format (JSON) in row-major order
http://www.bom.gov.au/fwo/IDV60901/IDV60901.94872.json